sensor_id;sensor_type;location;lat;lon;timestamp;P1;durP1;ratioP1;P2;durP2;ratioP2
72286;SDS011;60221;45.696;16.076;2023-05-14T00:00:13;22.20;;;14.70;;
72286;SDS011;60221;45.696;16.076;2023-05-14T00:02:41;20.90;;;14.50;;
72286;SDS011;60221;45.696;16.076;2023-05-14T00:05:08;23.30;;;15.10;;
72286;SDS011;60221;45.696;16.076;2023-05-14T00:07:35;21.10;;;14.90;;
72286;SDS011;60221;45.696;16.076;2023-05-14T00:10:02;21.30;;;15.40;;
72286;SDS011;60221;45.696;16.076;2023-05-14T00:12:29;21.90;;;15.10;;
72286;SDS011;60221;45.696;16.076;2023-05-14T00:14:56;24.40;;;14.60;;
72286;SDS011;60221;45.696;16.076;2023-05-14T00:17:23;18.90;;;13.50;;
72286;SDS011;60221;45.696;16.076;2023-05-14T00:19:50;20.20;;;12.30;;
72286;SDS011;60221;45.696;16.076;2023-05-14T00:22:17;18.60;;;12.70;;
72286;SDS011;60221;45.696;16.076;2023-05-14T00:24:44;22.40;;;14.50;;
72286;SDS011;60221;45.696;16.076;2023-05-14T00:27:11;20.50;;;13.30;;
72286;SDS011;60221;45.696;16.076;2023-05-14T00:29:38;17.40;;;10.60;;
72286;SDS011;60221;45.696;16.076;2023-05-14T00:32:05;17.80;;;12.30;;
72286;SDS011;60221;45.696;16.076;2023-05-14T00:34:33;16.90;;;11.20;;
72286;SDS011;60221;45.696;16.076;2023-05-14T00:37:00;17.30;;;11.10;;
72286;SDS011;60221;45.696;16.076;2023-05-14T00:39:28;14.60;;;10.20;;
72286;SDS011;60221;45.696;16.076;2023-05-14T00:41:55;13.50;;;9.30;;
72286;SDS011;60221;45.696;16.076;2023-05-14T00:44:21;15.30;;;9.90;;
72286;SDS011;60221;45.696;16.076;2023-05-14T00:46:48;12.40;;;7.40;;
72286;SDS011;60221;45.696;16.076;2023-05-14T00:49:16;14.50;;;8.70;;
72286;SDS011;60221;45.696;16.076;2023-05-14T00:51:43;15.70;;;9.50;;
72286;SDS011;60221;45.696;16.076;2023-05-14T00:54:13;15.40;;;9.10;;
72286;SDS011;60221;45.696;16.076;2023-05-14T00:56:43;14.40;;;8.00;;
72286;SDS011;60221;45.696;16.076;2023-05-14T00:59:11;15.10;;;8.60;;
72286;SDS011;60221;45.696;16.076;2023-05-14T01:01:39;11.60;;;7.00;;
72286;SDS011;60221;45.696;16.076;2023-05-14T01:04:06;12.50;;;7.90;;
72286;SDS011;60221;45.696;16.076;2023-05-14T01:11:38;12.40;;;6.80;;
72286;SDS011;60221;45.696;16.076;2023-05-14T01:16:36;12.20;;;7.00;;
72286;SDS011;60221;45.696;16.076;2023-05-14T01:19:04;11.30;;;5.70;;
72286;SDS011;60221;45.696;16.076;2023-05-14T01:21:37;9.60;;;5.50;;
72286;SDS011;60221;45.696;16.076;2023-05-14T01:24:06;10.20;;;5.50;;
72286;SDS011;60221;45.696;16.076;2023-05-14T01:26:34;10.30;;;5.50;;
72286;SDS011;60221;45.696;16.076;2023-05-14T01:29:08;10.80;;;5.50;;
72286;SDS011;60221;45.696;16.076;2023-05-14T01:31:38;10.00;;;6.00;;
72286;SDS011;60221;45.696;16.076;2023-05-14T01:34:06;12.10;;;5.40;;
72286;SDS011;60221;45.696;16.076;2023-05-14T01:36:33;12.30;;;6.70;;
72286;SDS011;60221;45.696;16.076;2023-05-14T01:39:00;7.70;;;4.60;;
72286;SDS011;60221;45.696;16.076;2023-05-14T01:41:29;10.30;;;6.20;;
72286;SDS011;60221;45.696;16.076;2023-05-14T01:43:57;9.20;;;5.10;;
72286;SDS011;60221;45.696;16.076;2023-05-14T01:46:24;10.50;;;6.50;;
72286;SDS011;60221;45.696;16.076;2023-05-14T01:48:51;11.00;;;6.80;;
72286;SDS011;60221;45.696;16.076;2023-05-14T01:51:18;10.30;;;6.40;;
72286;SDS011;60221;45.696;16.076;2023-05-14T01:53:45;9.80;;;5.90;;
72286;SDS011;60221;45.696;16.076;2023-05-14T01:56:12;10.00;;;6.00;;
72286;SDS011;60221;45.696;16.076;2023-05-14T01:58:39;10.80;;;5.50;;
72286;SDS011;60221;45.696;16.076;2023-05-14T02:01:05;11.50;;;5.90;;
72286;SDS011;60221;45.696;16.076;2023-05-14T02:03:32;11.90;;;5.60;;
72286;SDS011;60221;45.696;16.076;2023-05-14T02:05:59;9.50;;;5.40;;
72286;SDS011;60221;45.696;16.076;2023-05-14T02:08:26;9.60;;;5.80;;
72286;SDS011;60221;45.696;16.076;2023-05-14T02:10:53;12.60;;;6.70;;
72286;SDS011;60221;45.696;16.076;2023-05-14T02:13:23;11.20;;;7.40;;
72286;SDS011;60221;45.696;16.076;2023-05-14T02:15:50;13.10;;;5.70;;
72286;SDS011;60221;45.696;16.076;2023-05-14T02:18:17;10.40;;;6.40;;
72286;SDS011;60221;45.696;16.076;2023-05-14T02:20:45;12.30;;;7.00;;
72286;SDS011;60221;45.696;16.076;2023-05-14T02:23:12;10.20;;;6.60;;
72286;SDS011;60221;45.696;16.076;2023-05-14T02:25:38;12.80;;;6.90;;
72286;SDS011;60221;45.696;16.076;2023-05-14T02:28:06;11.80;;;6.10;;
72286;SDS011;60221;45.696;16.076;2023-05-14T02:30:33;10.80;;;6.70;;
72286;SDS011;60221;45.696;16.076;2023-05-14T02:33:00;12.30;;;7.40;;
72286;SDS011;60221;45.696;16.076;2023-05-14T02:35:27;10.50;;;5.90;;
72286;SDS011;60221;45.696;16.076;2023-05-14T02:37:54;12.60;;;7.60;;
72286;SDS011;60221;45.696;16.076;2023-05-14T02:40:21;12.50;;;6.40;;
72286;SDS011;60221;45.696;16.076;2023-05-14T02:42:49;11.40;;;6.80;;
72286;SDS011;60221;45.696;16.076;2023-05-14T02:45:16;13.50;;;7.70;;
72286;SDS011;60221;45.696;16.076;2023-05-14T02:47:43;11.50;;;7.80;;
72286;SDS011;60221;45.696;16.076;2023-05-14T02:50:10;10.10;;;6.40;;
72286;SDS011;60221;45.696;16.076;2023-05-14T02:52:37;15.40;;;7.00;;
72286;SDS011;60221;45.696;16.076;2023-05-14T02:55:04;13.30;;;7.40;;
72286;SDS011;60221;45.696;16.076;2023-05-14T02:57:31;10.60;;;5.70;;
72286;SDS011;60221;45.696;16.076;2023-05-14T02:59:58;9.90;;;5.30;;
72286;SDS011;60221;45.696;16.076;2023-05-14T03:02:26;11.20;;;6.60;;
72286;SDS011;60221;45.696;16.076;2023-05-14T03:04:53;10.80;;;5.70;;
72286;SDS011;60221;45.696;16.076;2023-05-14T03:07:20;11.50;;;6.80;;
72286;SDS011;60221;45.696;16.076;2023-05-14T03:09:47;12.60;;;6.90;;
72286;SDS011;60221;45.696;16.076;2023-05-14T03:12:14;11.50;;;6.90;;
72286;SDS011;60221;45.696;16.076;2023-05-14T03:14:41;13.40;;;7.80;;
72286;SDS011;60221;45.696;16.076;2023-05-14T03:17:08;12.40;;;7.30;;
72286;SDS011;60221;45.696;16.076;2023-05-14T03:19:35;10.10;;;6.90;;
72286;SDS011;60221;45.696;16.076;2023-05-14T03:22:03;13.20;;;7.50;;
72286;SDS011;60221;45.696;16.076;2023-05-14T03:24:29;10.60;;;5.80;;
72286;SDS011;60221;45.696;16.076;2023-05-14T03:26:57;11.30;;;7.30;;
72286;SDS011;60221;45.696;16.076;2023-05-14T03:29:23;12.90;;;7.10;;
72286;SDS011;60221;45.696;16.076;2023-05-14T03:31:50;10.00;;;5.60;;
72286;SDS011;60221;45.696;16.076;2023-05-14T03:34:17;9.80;;;5.80;;
72286;SDS011;60221;45.696;16.076;2023-05-14T03:36:44;10.90;;;6.50;;
72286;SDS011;60221;45.696;16.076;2023-05-14T03:39:11;10.80;;;6.00;;
72286;SDS011;60221;45.696;16.076;2023-05-14T03:41:41;10.70;;;5.80;;
72286;SDS011;60221;45.696;16.076;2023-05-14T03:44:08;12.00;;;5.20;;
72286;SDS011;60221;45.696;16.076;2023-05-14T03:46:35;9.80;;;5.70;;
72286;SDS011;60221;45.696;16.076;2023-05-14T03:49:01;10.80;;;5.50;;
72286;SDS011;60221;45.696;16.076;2023-05-14T03:51:29;10.60;;;5.10;;
72286;SDS011;60221;45.696;16.076;2023-05-14T03:53:57;9.20;;;5.60;;
72286;SDS011;60221;45.696;16.076;2023-05-14T03:56:24;11.80;;;6.20;;
72286;SDS011;60221;45.696;16.076;2023-05-14T03:58:51;7.40;;;4.20;;
72286;SDS011;60221;45.696;16.076;2023-05-14T04:01:18;9.90;;;5.00;;
72286;SDS011;60221;45.696;16.076;2023-05-14T04:03:45;8.80;;;4.70;;
72286;SDS011;60221;45.696;16.076;2023-05-14T04:06:13;8.50;;;4.50;;
72286;SDS011;60221;45.696;16.076;2023-05-14T04:08:40;9.40;;;5.20;;
72286;SDS011;60221;45.696;16.076;2023-05-14T04:11:07;8.90;;;4.20;;
72286;SDS011;60221;45.696;16.076;2023-05-14T04:13:35;9.50;;;5.50;;
72286;SDS011;60221;45.696;16.076;2023-05-14T04:16:02;8.30;;;5.10;;
72286;SDS011;60221;45.696;16.076;2023-05-14T04:18:29;10.30;;;5.00;;
72286;SDS011;60221;45.696;16.076;2023-05-14T04:21:01;9.40;;;5.20;;
72286;SDS011;60221;45.696;16.076;2023-05-14T04:23:28;9.80;;;5.20;;
72286;SDS011;60221;45.696;16.076;2023-05-14T04:25:57;8.00;;;5.00;;
72286;SDS011;60221;45.696;16.076;2023-05-14T04:28:24;9.80;;;5.50;;
72286;SDS011;60221;45.696;16.076;2023-05-14T04:30:51;7.90;;;4.30;;
72286;SDS011;60221;45.696;16.076;2023-05-14T04:33:18;11.60;;;5.00;;
72286;SDS011;60221;45.696;16.076;2023-05-14T04:35:46;9.90;;;4.80;;
72286;SDS011;60221;45.696;16.076;2023-05-14T04:38:13;7.40;;;4.30;;
72286;SDS011;60221;45.696;16.076;2023-05-14T04:40:40;7.00;;;3.70;;
72286;SDS011;60221;45.696;16.076;2023-05-14T04:43:07;8.20;;;4.10;;
72286;SDS011;60221;45.696;16.076;2023-05-14T04:45:35;8.10;;;3.90;;
72286;SDS011;60221;45.696;16.076;2023-05-14T04:48:02;7.70;;;3.80;;
72286;SDS011;60221;45.696;16.076;2023-05-14T04:50:29;7.20;;;3.50;;
72286;SDS011;60221;45.696;16.076;2023-05-14T04:52:56;6.90;;;3.90;;
72286;SDS011;60221;45.696;16.076;2023-05-14T04:55:23;6.50;;;3.50;;
72286;SDS011;60221;45.696;16.076;2023-05-14T04:57:50;5.80;;;3.00;;
72286;SDS011;60221;45.696;16.076;2023-05-14T05:00:17;7.60;;;3.90;;
72286;SDS011;60221;45.696;16.076;2023-05-14T05:02:47;6.70;;;3.30;;
72286;SDS011;60221;45.696;16.076;2023-05-14T05:05:14;6.80;;;3.10;;
72286;SDS011;60221;45.696;16.076;2023-05-14T05:07:41;7.20;;;3.50;;
72286;SDS011;60221;45.696;16.076;2023-05-14T05:10:08;7.90;;;4.00;;
72286;SDS011;60221;45.696;16.076;2023-05-14T05:12:35;7.50;;;3.20;;
72286;SDS011;60221;45.696;16.076;2023-05-14T05:15:03;5.90;;;3.50;;
72286;SDS011;60221;45.696;16.076;2023-05-14T05:17:30;6.90;;;3.80;;
72286;SDS011;60221;45.696;16.076;2023-05-14T05:19:57;7.40;;;3.10;;
72286;SDS011;60221;45.696;16.076;2023-05-14T05:22:24;6.60;;;3.30;;
72286;SDS011;60221;45.696;16.076;2023-05-14T05:24:51;6.70;;;3.50;;
72286;SDS011;60221;45.696;16.076;2023-05-14T05:27:18;6.90;;;4.00;;
72286;SDS011;60221;45.696;16.076;2023-05-14T05:29:47;6.40;;;3.00;;
72286;SDS011;60221;45.696;16.076;2023-05-14T05:32:14;6.70;;;3.50;;
72286;SDS011;60221;45.696;16.076;2023-05-14T05:34:41;7.20;;;3.70;;
72286;SDS011;60221;45.696;16.076;2023-05-14T05:37:08;6.00;;;3.50;;
72286;SDS011;60221;45.696;16.076;2023-05-14T05:39:38;5.80;;;2.90;;
72286;SDS011;60221;45.696;16.076;2023-05-14T05:42:05;5.80;;;2.90;;
72286;SDS011;60221;45.696;16.076;2023-05-14T05:44:33;7.10;;;3.90;;
72286;SDS011;60221;45.696;16.076;2023-05-14T05:46:59;6.40;;;3.00;;
72286;SDS011;60221;45.696;16.076;2023-05-14T05:49:26;6.40;;;3.30;;
72286;SDS011;60221;45.696;16.076;2023-05-14T05:51:53;6.60;;;3.20;;
72286;SDS011;60221;45.696;16.076;2023-05-14T05:54:21;6.10;;;3.30;;
72286;SDS011;60221;45.696;16.076;2023-05-14T05:56:49;5.50;;;2.90;;
72286;SDS011;60221;45.696;16.076;2023-05-14T05:59:16;6.80;;;3.20;;
72286;SDS011;60221;45.696;16.076;2023-05-14T06:01:43;6.50;;;3.00;;
72286;SDS011;60221;45.696;16.076;2023-05-14T06:04:10;6.00;;;2.60;;
72286;SDS011;60221;45.696;16.076;2023-05-14T06:06:37;6.80;;;3.50;;
72286;SDS011;60221;45.696;16.076;2023-05-14T06:09:04;6.60;;;3.00;;
72286;SDS011;60221;45.696;16.076;2023-05-14T06:11:32;5.40;;;2.30;;
72286;SDS011;60221;45.696;16.076;2023-05-14T06:13:59;5.50;;;2.40;;
72286;SDS011;60221;45.696;16.076;2023-05-14T06:16:26;6.00;;;2.30;;
72286;SDS011;60221;45.696;16.076;2023-05-14T06:18:53;5.30;;;2.80;;
72286;SDS011;60221;45.696;16.076;2023-05-14T06:21:21;5.50;;;2.50;;
72286;SDS011;60221;45.696;16.076;2023-05-14T06:23:48;4.80;;;2.00;;
72286;SDS011;60221;45.696;16.076;2023-05-14T06:26:15;5.90;;;2.80;;
72286;SDS011;60221;45.696;16.076;2023-05-14T06:28:43;4.90;;;2.20;;
72286;SDS011;60221;45.696;16.076;2023-05-14T06:31:10;4.90;;;2.00;;
72286;SDS011;60221;45.696;16.076;2023-05-14T06:33:37;6.30;;;1.70;;
72286;SDS011;60221;45.696;16.076;2023-05-14T06:36:05;4.50;;;2.20;;
72286;SDS011;60221;45.696;16.076;2023-05-14T06:38:32;4.50;;;1.90;;
72286;SDS011;60221;45.696;16.076;2023-05-14T06:40:59;7.20;;;2.30;;
72286;SDS011;60221;45.696;16.076;2023-05-14T06:43:25;5.10;;;2.10;;
72286;SDS011;60221;45.696;16.076;2023-05-14T06:45:53;4.50;;;2.10;;
72286;SDS011;60221;45.696;16.076;2023-05-14T06:48:20;6.30;;;2.00;;
72286;SDS011;60221;45.696;16.076;2023-05-14T06:50:47;5.30;;;1.90;;
72286;SDS011;60221;45.696;16.076;2023-05-14T06:53:14;4.90;;;1.90;;
72286;SDS011;60221;45.696;16.076;2023-05-14T06:55:41;5.70;;;2.00;;
72286;SDS011;60221;45.696;16.076;2023-05-14T06:58:08;5.50;;;2.10;;
72286;SDS011;60221;45.696;16.076;2023-05-14T07:00:35;8.50;;;1.90;;
72286;SDS011;60221;45.696;16.076;2023-05-14T07:03:02;5.30;;;1.90;;
72286;SDS011;60221;45.696;16.076;2023-05-14T07:05:29;4.80;;;2.10;;
72286;SDS011;60221;45.696;16.076;2023-05-14T07:07:56;4.90;;;2.20;;
72286;SDS011;60221;45.696;16.076;2023-05-14T07:10:23;6.00;;;2.30;;
72286;SDS011;60221;45.696;16.076;2023-05-14T07:12:50;4.80;;;1.90;;
72286;SDS011;60221;45.696;16.076;2023-05-14T07:15:17;6.30;;;2.50;;
72286;SDS011;60221;45.696;16.076;2023-05-14T07:17:44;5.40;;;2.80;;
72286;SDS011;60221;45.696;16.076;2023-05-14T07:20:11;6.90;;;2.00;;
72286;SDS011;60221;45.696;16.076;2023-05-14T07:22:38;5.00;;;2.30;;
72286;SDS011;60221;45.696;16.076;2023-05-14T07:25:05;4.60;;;2.00;;
72286;SDS011;60221;45.696;16.076;2023-05-14T07:27:32;5.50;;;2.40;;
72286;SDS011;60221;45.696;16.076;2023-05-14T07:29:59;5.20;;;2.50;;
72286;SDS011;60221;45.696;16.076;2023-05-14T07:32:26;5.40;;;2.60;;
72286;SDS011;60221;45.696;16.076;2023-05-14T07:34:53;4.10;;;1.90;;
72286;SDS011;60221;45.696;16.076;2023-05-14T07:37:20;5.70;;;2.40;;
72286;SDS011;60221;45.696;16.076;2023-05-14T07:39:49;7.00;;;3.10;;
72286;SDS011;60221;45.696;16.076;2023-05-14T07:42:16;6.20;;;2.90;;
72286;SDS011;60221;45.696;16.076;2023-05-14T07:44:57;4.90;;;2.20;;
72286;SDS011;60221;45.696;16.076;2023-05-14T07:47:24;5.60;;;2.40;;
72286;SDS011;60221;45.696;16.076;2023-05-14T07:49:55;5.10;;;2.50;;
72286;SDS011;60221;45.696;16.076;2023-05-14T07:52:22;5.20;;;2.50;;
72286;SDS011;60221;45.696;16.076;2023-05-14T07:54:49;5.70;;;2.30;;
72286;SDS011;60221;45.696;16.076;2023-05-14T07:57:17;5.50;;;2.40;;
72286;SDS011;60221;45.696;16.076;2023-05-14T07:59:44;6.70;;;2.40;;
72286;SDS011;60221;45.696;16.076;2023-05-14T08:02:12;4.30;;;2.10;;
72286;SDS011;60221;45.696;16.076;2023-05-14T08:04:42;4.50;;;2.30;;
72286;SDS011;60221;45.696;16.076;2023-05-14T08:07:08;5.10;;;2.00;;
72286;SDS011;60221;45.696;16.076;2023-05-14T08:09:35;4.50;;;1.70;;
72286;SDS011;60221;45.696;16.076;2023-05-14T08:12:02;4.80;;;2.30;;
72286;SDS011;60221;45.696;16.076;2023-05-14T08:14:29;4.40;;;1.80;;
72286;SDS011;60221;45.696;16.076;2023-05-14T08:16:56;4.30;;;1.90;;
72286;SDS011;60221;45.696;16.076;2023-05-14T08:19:23;4.50;;;1.60;;
72286;SDS011;60221;45.696;16.076;2023-05-14T08:21:50;5.50;;;1.80;;
72286;SDS011;60221;45.696;16.076;2023-05-14T08:24:17;4.30;;;1.90;;
72286;SDS011;60221;45.696;16.076;2023-05-14T08:26:44;4.00;;;2.10;;
72286;SDS011;60221;45.696;16.076;2023-05-14T08:29:11;5.10;;;3.10;;
72286;SDS011;60221;45.696;16.076;2023-05-14T08:31:42;5.60;;;2.30;;
72286;SDS011;60221;45.696;16.076;2023-05-14T08:34:10;4.80;;;2.40;;
72286;SDS011;60221;45.696;16.076;2023-05-14T08:36:39;4.40;;;2.10;;
72286;SDS011;60221;45.696;16.076;2023-05-14T08:39:06;4.70;;;1.70;;
72286;SDS011;60221;45.696;16.076;2023-05-14T08:41:34;4.80;;;2.20;;
72286;SDS011;60221;45.696;16.076;2023-05-14T08:46:41;4.80;;;2.20;;
72286;SDS011;60221;45.696;16.076;2023-05-14T08:51:44;8.70;;;6.30;;
72286;SDS011;60221;45.696;16.076;2023-05-14T08:54:17;6.40;;;3.90;;
72286;SDS011;60221;45.696;16.076;2023-05-14T08:56:45;4.10;;;1.90;;
72286;SDS011;60221;45.696;16.076;2023-05-14T08:59:12;4.50;;;1.70;;
72286;SDS011;60221;45.696;16.076;2023-05-14T09:01:42;4.00;;;1.60;;
72286;SDS011;60221;45.696;16.076;2023-05-14T09:04:11;4.40;;;1.40;;
72286;SDS011;60221;45.696;16.076;2023-05-14T09:06:38;4.80;;;1.40;;
72286;SDS011;60221;45.696;16.076;2023-05-14T09:09:06;4.00;;;1.70;;
72286;SDS011;60221;45.696;16.076;2023-05-14T09:11:33;4.10;;;1.40;;
72286;SDS011;60221;45.696;16.076;2023-05-14T09:14:00;4.50;;;1.70;;
72286;SDS011;60221;45.696;16.076;2023-05-14T09:16:27;6.10;;;2.00;;
72286;SDS011;60221;45.696;16.076;2023-05-14T09:18:54;7.20;;;2.20;;
72286;SDS011;60221;45.696;16.076;2023-05-14T09:21:21;5.90;;;2.90;;
72286;SDS011;60221;45.696;16.076;2023-05-14T09:23:52;5.20;;;2.90;;
72286;SDS011;60221;45.696;16.076;2023-05-14T09:26:21;9.40;;;3.70;;
72286;SDS011;60221;45.696;16.076;2023-05-14T09:28:51;7.40;;;3.90;;
72286;SDS011;60221;45.696;16.076;2023-05-14T09:31:19;7.10;;;3.30;;
72286;SDS011;60221;45.696;16.076;2023-05-14T09:33:49;6.60;;;3.20;;
72286;SDS011;60221;45.696;16.076;2023-05-14T09:36:17;5.40;;;2.40;;
72286;SDS011;60221;45.696;16.076;2023-05-14T09:38:44;3.60;;;1.40;;
72286;SDS011;60221;45.696;16.076;2023-05-14T09:41:11;4.20;;;1.80;;
72286;SDS011;60221;45.696;16.076;2023-05-14T09:43:38;4.70;;;1.80;;
72286;SDS011;60221;45.696;16.076;2023-05-14T09:46:06;4.40;;;1.60;;
72286;SDS011;60221;45.696;16.076;2023-05-14T09:48:32;4.10;;;1.50;;
72286;SDS011;60221;45.696;16.076;2023-05-14T09:50:59;6.40;;;3.20;;
72286;SDS011;60221;45.696;16.076;2023-05-14T09:53:31;4.40;;;1.80;;
72286;SDS011;60221;45.696;16.076;2023-05-14T09:55:58;4.40;;;1.80;;
72286;SDS011;60221;45.696;16.076;2023-05-14T09:58:25;4.30;;;1.70;;
72286;SDS011;60221;45.696;16.076;2023-05-14T10:00:52;3.90;;;1.80;;
72286;SDS011;60221;45.696;16.076;2023-05-14T10:03:19;3.70;;;1.60;;
72286;SDS011;60221;45.696;16.076;2023-05-14T10:05:47;3.60;;;1.40;;
72286;SDS011;60221;45.696;16.076;2023-05-14T10:08:23;6.20;;;1.40;;
72286;SDS011;60221;45.696;16.076;2023-05-14T10:10:53;3.60;;;1.50;;
72286;SDS011;60221;45.696;16.076;2023-05-14T10:13:22;6.90;;;5.00;;
72286;SDS011;60221;45.696;16.076;2023-05-14T10:18:25;3.90;;;1.40;;
72286;SDS011;60221;45.696;16.076;2023-05-14T10:21:04;4.10;;;1.70;;
72286;SDS011;60221;45.696;16.076;2023-05-14T10:23:32;4.10;;;1.30;;
72286;SDS011;60221;45.696;16.076;2023-05-14T10:25:59;3.30;;;1.40;;
72286;SDS011;60221;45.696;16.076;2023-05-14T10:28:27;3.20;;;1.10;;
72286;SDS011;60221;45.696;16.076;2023-05-14T10:30:54;2.90;;;1.00;;
72286;SDS011;60221;45.696;16.076;2023-05-14T10:33:21;3.30;;;1.30;;
72286;SDS011;60221;45.696;16.076;2023-05-14T10:36:04;3.80;;;1.40;;
72286;SDS011;60221;45.696;16.076;2023-05-14T10:38:32;3.30;;;1.40;;
72286;SDS011;60221;45.696;16.076;2023-05-14T10:41:03;3.30;;;1.30;;
72286;SDS011;60221;45.696;16.076;2023-05-14T10:43:35;4.70;;;1.20;;
72286;SDS011;60221;45.696;16.076;2023-05-14T10:46:02;3.20;;;1.20;;
72286;SDS011;60221;45.696;16.076;2023-05-14T10:48:29;3.80;;;1.10;;
72286;SDS011;60221;45.696;16.076;2023-05-14T10:50:57;3.40;;;1.30;;
72286;SDS011;60221;45.696;16.076;2023-05-14T10:53:32;3.50;;;1.00;;
72286;SDS011;60221;45.696;16.076;2023-05-14T10:56:07;3.80;;;1.70;;
72286;SDS011;60221;45.696;16.076;2023-05-14T10:58:38;3.60;;;1.20;;
72286;SDS011;60221;45.696;16.076;2023-05-14T11:01:06;3.70;;;1.20;;
72286;SDS011;60221;45.696;16.076;2023-05-14T11:03:41;3.20;;;0.90;;
72286;SDS011;60221;45.696;16.076;2023-05-14T11:06:09;4.10;;;1.70;;
72286;SDS011;60221;45.696;16.076;2023-05-14T11:08:36;3.70;;;1.60;;
72286;SDS011;60221;45.696;16.076;2023-05-14T11:11:04;3.60;;;1.40;;
72286;SDS011;60221;45.696;16.076;2023-05-14T11:13:31;4.60;;;1.20;;
72286;SDS011;60221;45.696;16.076;2023-05-14T11:16:00;3.90;;;1.20;;
72286;SDS011;60221;45.696;16.076;2023-05-14T11:18:47;3.40;;;1.20;;
72286;SDS011;60221;45.696;16.076;2023-05-14T11:21:18;3.50;;;1.10;;
72286;SDS011;60221;45.696;16.076;2023-05-14T11:23:46;4.90;;;1.50;;
72286;SDS011;60221;45.696;16.076;2023-05-14T11:26:13;4.80;;;1.10;;
72286;SDS011;60221;45.696;16.076;2023-05-14T11:28:41;6.90;;;3.30;;
72286;SDS011;60221;45.696;16.076;2023-05-14T11:31:08;5.40;;;2.40;;
72286;SDS011;60221;45.696;16.076;2023-05-14T11:33:35;4.20;;;1.90;;
72286;SDS011;60221;45.696;16.076;2023-05-14T11:36:02;3.50;;;1.30;;
72286;SDS011;60221;45.696;16.076;2023-05-14T11:38:29;3.70;;;1.70;;
72286;SDS011;60221;45.696;16.076;2023-05-14T11:40:57;3.60;;;1.30;;
72286;SDS011;60221;45.696;16.076;2023-05-14T11:43:24;3.40;;;1.40;;
72286;SDS011;60221;45.696;16.076;2023-05-14T11:45:55;4.70;;;1.60;;
72286;SDS011;60221;45.696;16.076;2023-05-14T11:48:22;4.20;;;1.30;;
72286;SDS011;60221;45.696;16.076;2023-05-14T11:50:50;4.00;;;1.30;;
72286;SDS011;60221;45.696;16.076;2023-05-14T11:55:44;3.40;;;1.20;;
72286;SDS011;60221;45.696;16.076;2023-05-14T11:58:12;5.20;;;1.20;;
72286;SDS011;60221;45.696;16.076;2023-05-14T12:00:39;4.60;;;2.00;;
72286;SDS011;60221;45.696;16.076;2023-05-14T12:03:08;5.40;;;2.00;;
72286;SDS011;60221;45.696;16.076;2023-05-14T12:05:38;4.50;;;1.80;;
72286;SDS011;60221;45.696;16.076;2023-05-14T12:08:18;4.40;;;1.70;;
72286;SDS011;60221;45.696;16.076;2023-05-14T12:10:45;4.30;;;1.70;;
72286;SDS011;60221;45.696;16.076;2023-05-14T12:13:14;4.10;;;1.50;;
72286;SDS011;60221;45.696;16.076;2023-05-14T12:15:43;3.60;;;1.40;;
72286;SDS011;60221;45.696;16.076;2023-05-14T12:18:10;3.80;;;1.10;;
72286;SDS011;60221;45.696;16.076;2023-05-14T12:20:49;3.80;;;1.30;;
72286;SDS011;60221;45.696;16.076;2023-05-14T12:23:26;3.80;;;1.50;;
72286;SDS011;60221;45.696;16.076;2023-05-14T12:25:53;4.60;;;2.00;;
72286;SDS011;60221;45.696;16.076;2023-05-14T12:28:21;10.40;;;4.30;;
72286;SDS011;60221;45.696;16.076;2023-05-14T12:30:54;6.80;;;2.60;;
72286;SDS011;60221;45.696;16.076;2023-05-14T12:33:22;3.90;;;1.80;;
72286;SDS011;60221;45.696;16.076;2023-05-14T12:35:49;17.40;;;9.40;;
72286;SDS011;60221;45.696;16.076;2023-05-14T12:38:16;12.80;;;5.70;;
72286;SDS011;60221;45.696;16.076;2023-05-14T12:40:43;20.20;;;8.90;;
72286;SDS011;60221;45.696;16.076;2023-05-14T12:43:10;5.80;;;2.70;;
72286;SDS011;60221;45.696;16.076;2023-05-14T12:45:36;11.60;;;6.70;;
72286;SDS011;60221;45.696;16.076;2023-05-14T12:48:03;4.70;;;2.30;;
72286;SDS011;60221;45.696;16.076;2023-05-14T12:50:30;3.30;;;1.20;;
72286;SDS011;60221;45.696;16.076;2023-05-14T12:52:57;3.30;;;1.20;;
72286;SDS011;60221;45.696;16.076;2023-05-14T12:55:24;3.90;;;1.10;;
72286;SDS011;60221;45.696;16.076;2023-05-14T12:57:51;3.00;;;0.70;;
72286;SDS011;60221;45.696;16.076;2023-05-14T13:00:18;5.20;;;0.90;;
72286;SDS011;60221;45.696;16.076;2023-05-14T13:02:45;2.80;;;0.60;;
72286;SDS011;60221;45.696;16.076;2023-05-14T13:05:11;3.30;;;0.90;;
72286;SDS011;60221;45.696;16.076;2023-05-14T13:07:38;5.50;;;0.90;;
72286;SDS011;60221;45.696;16.076;2023-05-14T13:10:05;2.60;;;0.70;;
72286;SDS011;60221;45.696;16.076;2023-05-14T13:12:32;2.80;;;0.90;;
72286;SDS011;60221;45.696;16.076;2023-05-14T13:14:59;2.80;;;0.90;;
72286;SDS011;60221;45.696;16.076;2023-05-14T13:17:26;3.00;;;0.90;;
72286;SDS011;60221;45.696;16.076;2023-05-14T13:19:53;2.60;;;0.70;;
72286;SDS011;60221;45.696;16.076;2023-05-14T13:22:20;2.30;;;0.60;;
72286;SDS011;60221;45.696;16.076;2023-05-14T13:24:47;4.20;;;0.50;;
72286;SDS011;60221;45.696;16.076;2023-05-14T13:27:13;3.20;;;0.90;;
72286;SDS011;60221;45.696;16.076;2023-05-14T13:29:40;2.80;;;0.70;;
72286;SDS011;60221;45.696;16.076;2023-05-14T13:32:07;2.70;;;0.40;;
72286;SDS011;60221;45.696;16.076;2023-05-14T13:34:34;3.70;;;0.80;;
72286;SDS011;60221;45.696;16.076;2023-05-14T13:37:01;3.20;;;0.80;;
72286;SDS011;60221;45.696;16.076;2023-05-14T13:39:29;3.90;;;0.60;;
72286;SDS011;60221;45.696;16.076;2023-05-14T13:41:56;2.40;;;0.40;;
72286;SDS011;60221;45.696;16.076;2023-05-14T13:44:23;2.70;;;0.60;;
72286;SDS011;60221;45.696;16.076;2023-05-14T13:46:50;2.80;;;0.70;;
72286;SDS011;60221;45.696;16.076;2023-05-14T13:49:17;2.90;;;1.00;;
72286;SDS011;60221;45.696;16.076;2023-05-14T13:51:44;3.70;;;1.50;;
72286;SDS011;60221;45.696;16.076;2023-05-14T13:54:11;3.60;;;1.30;;
72286;SDS011;60221;45.696;16.076;2023-05-14T13:56:38;2.90;;;0.80;;
72286;SDS011;60221;45.696;16.076;2023-05-14T13:59:05;4.70;;;0.70;;
72286;SDS011;60221;45.696;16.076;2023-05-14T14:01:32;2.60;;;0.70;;
72286;SDS011;60221;45.696;16.076;2023-05-14T14:03:59;2.20;;;0.50;;
72286;SDS011;60221;45.696;16.076;2023-05-14T14:06:26;2.60;;;0.50;;
72286;SDS011;60221;45.696;16.076;2023-05-14T14:08:53;2.70;;;0.70;;
72286;SDS011;60221;45.696;16.076;2023-05-14T14:11:19;2.90;;;0.70;;
72286;SDS011;60221;45.696;16.076;2023-05-14T14:13:47;3.30;;;0.60;;
72286;SDS011;60221;45.696;16.076;2023-05-14T14:16:14;3.50;;;1.20;;
72286;SDS011;60221;45.696;16.076;2023-05-14T14:18:41;3.40;;;1.00;;
72286;SDS011;60221;45.696;16.076;2023-05-14T14:21:09;3.60;;;0.60;;
72286;SDS011;60221;45.696;16.076;2023-05-14T14:23:36;2.90;;;0.80;;
72286;SDS011;60221;45.696;16.076;2023-05-14T14:26:02;3.40;;;1.20;;
72286;SDS011;60221;45.696;16.076;2023-05-14T14:28:29;4.40;;;1.50;;
72286;SDS011;60221;45.696;16.076;2023-05-14T14:30:57;3.60;;;1.30;;
72286;SDS011;60221;45.696;16.076;2023-05-14T14:33:24;4.30;;;1.90;;
72286;SDS011;60221;45.696;16.076;2023-05-14T14:35:51;4.70;;;2.10;;
72286;SDS011;60221;45.696;16.076;2023-05-14T14:38:18;5.40;;;2.10;;
72286;SDS011;60221;45.696;16.076;2023-05-14T14:40:45;4.70;;;1.70;;
72286;SDS011;60221;45.696;16.076;2023-05-14T14:43:12;5.80;;;3.00;;
72286;SDS011;60221;45.696;16.076;2023-05-14T14:45:39;4.70;;;1.90;;
72286;SDS011;60221;45.696;16.076;2023-05-14T14:48:25;4.60;;;2.00;;
72286;SDS011;60221;45.696;16.076;2023-05-14T14:50:54;5.10;;;2.40;;